Time;durP1;ratioP1;P1;durP2;ratioP2;P2;SDS_P1;SDS_P2;PMS_P1;PMS_P2;Temp;Humidity;BMP_temperature;BMP_pressure;BME280_temperature;BME280_humidity;BME280_pressure;Samples;Min_cycle;Max_cycle;Signal;HPM_P1;HPM_P2
2023/12/26 00:00:41;;;;;;;1.27;0.30;;;17.90;88.90;;;;;;5103213;27;45114;-53
2023/12/26 00:03:07;;;;;;;0.20;0.10;;;17.90;88.80;;;;;;5106167;27;45157;-53
2023/12/26 00:05:35;;;;;;;0.10;0.10;;;17.80;88.70;;;;;;5105653;27;46197;-52
2023/12/26 00:08:03;;;;;;;0.22;0.20;;;17.90;88.70;;;;;;5104477;27;45211;-52
2023/12/26 00:10:29;;;;;;;0.20;0.20;;;17.90;88.70;;;;;;5106691;27;45210;-53
2023/12/26 00:12:56;;;;;;;0.98;0.20;;;17.90;88.70;;;;;;5106742;27;45321;-53
2023/12/26 00:15:23;;;;;;;0.32;0.10;;;17.90;88.70;;;;;;5107816;27;47192;-52
2023/12/26 00:17:51;;;;;;;0.45;0.30;;;17.90;88.50;;;;;;5104551;27;45204;-53
2023/12/26 00:20:18;;;;;;;0.40;0.20;;;17.90;88.50;;;;;;5106230;27;45377;-53
2023/12/26 00:22:45;;;;;;;0.10;0.10;;;17.90;88.50;;;;;;5105656;27;45252;-53
2023/12/26 00:25:12;;;;;;;0.25;0.10;;;17.90;88.40;;;;;;5107640;27;45283;-52
2023/12/26 00:27:40;;;;;;;0.10;0.10;;;17.90;88.40;;;;;;5109000;27;45633;-52
2023/12/26 00:30:08;;;;;;;0.10;0.10;;;17.90;88.40;;;;;;5110973;27;45324;-53
2023/12/26 00:32:35;;;;;;;0.22;0.10;;;17.80;88.30;;;;;;5109437;27;45273;-53
2023/12/26 00:35:04;;;;;;;0.43;0.17;;;17.90;88.40;;;;;;5110581;27;47018;-52
2023/12/26 00:37:31;;;;;;;0.10;0.10;;;17.90;88.30;;;;;;5109931;27;45211;-53
2023/12/26 00:39:58;;;;;;;0.63;0.25;;;17.80;88.00;;;;;;5111477;27;45181;-53
2023/12/26 00:42:25;;;;;;;0.40;0.25;;;17.80;88.20;;;;;;5109637;27;45171;-52
2023/12/26 00:44:52;;;;;;;0.10;0.10;;;17.80;88.10;;;;;;5109980;27;45373;-52
2023/12/26 00:47:19;;;;;;;0.00;0.00;;;17.80;88.00;;;;;;5110673;27;45133;-52
2023/12/26 00:49:46;;;;;;;0.32;0.15;;;17.80;88.00;;;;;;5108679;27;45257;-53
2023/12/26 00:52:14;;;;;;;0.95;0.20;;;17.80;88.20;;;;;;5109947;27;45254;-53
2023/12/26 00:54:41;;;;;;;1.20;0.25;;;17.80;88.30;;;;;;5109761;27;48034;-53
2023/12/26 00:57:08;;;;;;;0.30;0.10;;;17.90;88.10;;;;;;5110418;27;45404;-53
2023/12/26 00:59:35;;;;;;;0.20;0.10;;;17.90;88.10;;;;;;5107156;27;45267;-52
2023/12/26 01:02:02;;;;;;;0.30;0.15;;;17.90;88.10;;;;;;5107373;27;45440;-53
2023/12/26 01:04:28;;;;;;;0.25;0.10;;;17.80;88.00;;;;;;5110156;27;45515;-52
2023/12/26 01:06:55;;;;;;;0.10;0.10;;;17.90;88.10;;;;;;5109293;27;45287;-52
2023/12/26 01:09:23;;;;;;;0.10;0.10;;;17.90;89.00;;;;;;5110315;27;45241;-52
2023/12/26 01:11:50;;;;;;;0.22;0.20;;;17.90;87.80;;;;;;5108101;27;45311;-52
2023/12/26 01:14:17;;;;;;;0.30;0.20;;;17.90;87.80;;;;;;5104055;27;46462;-52
2023/12/26 01:16:45;;;;;;;0.15;0.10;;;17.90;87.70;;;;;;5099663;27;45392;-52
2023/12/26 01:19:12;;;;;;;0.30;0.20;;;17.90;87.70;;;;;;5106710;27;45157;-52
2023/12/26 01:21:39;;;;;;;0.10;0.10;;;17.90;87.70;;;;;;5107430;27;45255;-52
2023/12/26 01:24:06;;;;;;;0.20;0.10;;;17.90;87.70;;;;;;5107469;27;47994;-52
2023/12/26 01:26:34;;;;;;;0.20;0.15;;;17.90;87.70;;;;;;5109955;27;45100;-52
2023/12/26 01:29:02;;;;;;;1.27;0.10;;;17.90;87.80;;;;;;5108151;27;45123;-52
2023/12/26 01:31:29;;;;;;;1.58;0.30;;;17.80;87.50;;;;;;5106460;27;45185;-52
2023/12/26 01:33:56;;;;;;;0.20;0.10;;;17.80;87.50;;;;;;5102620;27;47443;-52
2023/12/26 01:36:22;;;;;;;0.15;0.10;;;17.90;87.50;;;;;;5098798;27;46009;-52
2023/12/26 01:38:49;;;;;;;0.47;0.28;;;17.80;87.30;;;;;;5110983;27;45129;-52
2023/12/26 01:41:16;;;;;;;0.17;0.17;;;17.80;87.30;;;;;;5108856;27;45193;-52
2023/12/26 01:43:44;;;;;;;0.25;0.17;;;17.90;87.20;;;;;;5110437;27;45300;-52
2023/12/26 01:46:13;;;;;;;0.10;0.10;;;17.90;87.30;;;;;;5110365;27;45128;-52
2023/12/26 01:48:40;;;;;;;0.63;0.15;;;17.80;87.00;;;;;;5111318;27;45168;-52
2023/12/26 01:51:09;;;;;;;0.20;0.20;;;17.90;87.00;;;;;;5109997;27;45316;-52
2023/12/26 01:53:38;;;;;;;0.43;0.20;;;17.80;87.10;;;;;;5109599;27;45261;-52
2023/12/26 01:56:07;;;;;;;0.57;0.10;;;17.80;87.30;;;;;;5111906;27;45216;-52
2023/12/26 01:58:34;;;;;;;0.38;0.15;;;17.90;87.20;;;;;;5111754;27;45554;-52
2023/12/26 02:01:03;;;;;;;0.40;0.10;;;17.90;87.30;;;;;;5108612;27;45172;-52
2023/12/26 02:03:30;;;;;;;0.25;0.13;;;17.90;87.30;;;;;;5108555;27;45330;-52
2023/12/26 02:05:57;;;;;;;0.95;0.65;;;17.90;87.10;;;;;;5109074;27;45768;-52
2023/12/26 02:08:24;;;;;;;0.10;0.10;;;17.90;87.30;;;;;;5108517;27;45167;-52
2023/12/26 02:10:51;;;;;;;0.47;0.25;;;17.80;87.00;;;;;;5109149;27;45182;-52
2023/12/26 02:13:18;;;;;;;0.10;0.10;;;17.80;87.10;;;;;;5109463;27;45174;-52
2023/12/26 02:15:47;;;;;;;0.30;0.20;;;17.90;87.20;;;;;;5107995;27;45540;-52
2023/12/26 02:18:16;;;;;;;0.30;0.20;;;17.90;87.10;;;;;;5108151;27;45282;-52
2023/12/26 02:20:42;;;;;;;0.20;0.10;;;17.90;87.20;;;;;;5110103;27;45089;-52
2023/12/26 02:23:09;;;;;;;0.17;0.10;;;17.90;87.10;;;;;;5110415;27;45106;-52
2023/12/26 02:25:37;;;;;;;0.17;0.13;;;17.90;87.30;;;;;;5109933;27;45475;-52
2023/12/26 02:28:07;;;;;;;0.00;0.00;;;17.90;87.20;;;;;;5110710;27;45455;-52
2023/12/26 02:30:35;;;;;;;0.52;0.20;;;17.90;87.20;;;;;;5110241;27;45269;-53
2023/12/26 02:33:03;;;;;;;0.57;0.20;;;17.90;87.10;;;;;;5110508;27;46035;-52
2023/12/26 02:35:30;;;;;;;0.05;0.05;;;17.90;87.10;;;;;;5109812;27;45177;-52
2023/12/26 02:37:57;;;;;;;0.77;0.20;;;17.90;87.10;;;;;;5109153;27;45144;-52
2023/12/26 02:40:24;;;;;;;0.30;0.10;;;17.90;87.00;;;;;;5109866;27;44862;-52
2023/12/26 02:42:52;;;;;;;0.63;0.20;;;17.90;87.00;;;;;;5109920;27;47274;-52
2023/12/26 02:45:19;;;;;;;1.27;0.10;;;17.80;87.00;;;;;;5109947;27;45470;-53
2023/12/26 02:47:46;;;;;;;0.30;0.20;;;17.90;87.10;;;;;;5110601;27;45234;-52
2023/12/26 02:50:13;;;;;;;0.03;0.03;;;17.80;87.00;;;;;;5108344;27;45109;-53
2023/12/26 02:52:41;;;;;;;0.47;0.10;;;17.80;86.80;;;;;;5110101;27;45427;-52
2023/12/26 02:55:08;;;;;;;0.10;0.10;;;17.80;86.90;;;;;;5109380;27;46074;-53
2023/12/26 02:57:34;;;;;;;1.08;0.32;;;17.80;86.90;;;;;;5109279;27;45176;-52
2023/12/26 03:00:05;;;;;;;0.20;0.20;;;17.80;86.90;;;;;;5108623;27;45149;-52
2023/12/26 03:02:33;;;;;;;0.35;0.28;;;17.80;87.00;;;;;;5109434;27;45351;-52
2023/12/26 03:05:02;;;;;;;0.30;0.15;;;17.90;87.10;;;;;;5110199;27;45279;-52
2023/12/26 03:07:30;;;;;;;1.63;0.40;;;17.80;87.00;;;;;;5110207;27;45133;-52
2023/12/26 03:09:57;;;;;;;0.75;0.20;;;17.90;86.90;;;;;;5110055;27;45411;-52
2023/12/26 03:12:24;;;;;;;0.28;0.20;;;17.80;86.80;;;;;;5108185;27;45221;-52
2023/12/26 03:14:50;;;;;;;0.65;0.20;;;17.90;87.00;;;;;;5109938;27;44725;-52
2023/12/26 03:17:18;;;;;;;0.70;0.20;;;17.80;86.80;;;;;;5109999;27;45305;-52
2023/12/26 03:19:45;;;;;;;0.60;0.20;;;17.90;87.10;;;;;;5108475;27;45326;-52
2023/12/26 03:22:12;;;;;;;0.55;0.22;;;17.80;87.00;;;;;;5109147;27;46974;-52
2023/12/26 03:24:38;;;;;;;0.63;0.10;;;17.90;87.00;;;;;;5110005;27;45533;-52
2023/12/26 03:27:07;;;;;;;0.10;0.10;;;17.90;86.80;;;;;;5109197;27;45371;-52
2023/12/26 03:29:35;;;;;;;0.10;0.10;;;17.90;86.80;;;;;;5108340;27;45173;-52
2023/12/26 03:32:02;;;;;;;0.20;0.13;;;17.90;86.80;;;;;;5107614;27;45446;-52
2023/12/26 03:34:30;;;;;;;0.17;0.10;;;17.90;86.90;;;;;;5109237;27;45220;-52
2023/12/26 03:36:57;;;;;;;0.32;0.20;;;17.90;87.00;;;;;;5107531;27;45201;-53
2023/12/26 03:39:24;;;;;;;0.45;0.13;;;17.80;86.80;;;;;;5108024;27;45275;-52
2023/12/26 03:41:51;;;;;;;0.68;0.20;;;17.90;86.80;;;;;;5108316;27;47274;-52
2023/12/26 03:44:18;;;;;;;0.52;0.20;;;17.80;86.70;;;;;;5109001;27;45140;-52
2023/12/26 03:46:45;;;;;;;0.38;0.20;;;17.80;86.70;;;;;;5109201;27;45249;-52
2023/12/26 03:49:11;;;;;;;0.25;0.10;;;17.80;86.60;;;;;;5109082;27;45233;-52
2023/12/26 03:51:39;;;;;;;0.25;0.20;;;17.80;86.70;;;;;;5107126;27;45384;-52
2023/12/26 03:54:07;;;;;;;0.65;0.28;;;17.80;86.40;;;;;;5107538;27;45090;-53
2023/12/26 03:56:35;;;;;;;3.03;0.25;;;17.80;86.50;;;;;;5108741;27;45416;-52
2023/12/26 03:59:02;;;;;;;0.25;0.20;;;17.80;86.60;;;;;;5106710;27;45531;-52
2023/12/26 04:01:29;;;;;;;0.28;0.13;;;17.80;86.60;;;;;;5106841;27;46961;-52
2023/12/26 04:03:55;;;;;;;0.30;0.17;;;17.80;86.60;;;;;;5108677;27;45634;-52
2023/12/26 04:06:22;;;;;;;0.68;0.20;;;17.80;86.60;;;;;;5109260;27;44638;-52
2023/12/26 04:08:50;;;;;;;1.58;0.30;;;17.80;86.60;;;;;;5106665;27;45196;-52
2023/12/26 04:11:17;;;;;;;0.70;0.28;;;17.90;86.80;;;;;;5107847;27;45273;-52
2023/12/26 04:13:44;;;;;;;1.10;0.30;;;17.80;86.60;;;;;;5108453;27;45315;-52
2023/12/26 04:16:11;;;;;;;0.40;0.20;;;17.80;86.60;;;;;;5108375;27;45208;-52
2023/12/26 04:18:37;;;;;;;0.30;0.20;;;17.90;86.50;;;;;;5108894;27;45354;-52
2023/12/26 04:21:04;;;;;;;0.38;0.10;;;17.90;86.60;;;;;;5105707;27;47978;-52
2023/12/26 04:23:31;;;;;;;0.30;0.20;;;17.90;86.50;;;;;;5107963;27;45145;-52
2023/12/26 04:25:59;;;;;;;0.90;0.30;;;17.80;86.30;;;;;;5108630;27;45149;-52
2023/12/26 04:28:26;;;;;;;0.52;0.30;;;17.80;86.10;;;;;;5108135;27;45251;-52
2023/12/26 04:30:53;;;;;;;0.57;0.20;;;17.80;86.30;;;;;;5107175;27;47992;-53
2023/12/26 04:33:19;;;;;;;0.35;0.20;;;17.80;86.40;;;;;;5107767;27;45280;-53
2023/12/26 04:35:46;;;;;;;0.52;0.30;;;17.90;86.40;;;;;;5106401;27;45238;-53
2023/12/26 04:38:13;;;;;;;0.10;0.10;;;17.90;86.30;;;;;;5107339;27;45142;-52
2023/12/26 04:40:39;;;;;;;0.43;0.20;;;17.90;86.30;;;;;;5106107;27;45204;-53
2023/12/26 04:43:08;;;;;;;0.20;0.20;;;17.80;86.30;;;;;;5106468;27;45205;-52
2023/12/26 04:45:36;;;;;;;0.65;0.20;;;17.80;86.30;;;;;;5106987;27;45208;-52
2023/12/26 04:48:07;;;;;;;0.38;0.20;;;17.80;86.20;;;;;;5108707;27;45149;-53
2023/12/26 04:50:34;;;;;;;0.22;0.20;;;17.80;86.20;;;;;;5107632;27;45259;-53
2023/12/26 04:53:01;;;;;;;0.82;0.20;;;17.80;86.20;;;;;;5107366;27;45150;-52
2023/12/26 04:55:27;;;;;;;0.75;0.35;;;17.80;86.10;;;;;;5108727;27;45320;-52
2023/12/26 04:57:54;;;;;;;2.88;0.55;;;17.80;86.10;;;;;;5106803;27;45231;-52
2023/12/26 05:00:22;;;;;;;1.48;0.30;;;17.80;86.20;;;;;;5106449;27;45274;-52
2023/12/26 05:02:49;;;;;;;0.30;0.20;;;17.80;86.20;;;;;;5106232;27;45290;-52
2023/12/26 05:05:16;;;;;;;0.93;0.22;;;17.80;86.10;;;;;;5105409;27;45224;-53
2023/12/26 05:07:43;;;;;;;0.63;0.38;;;17.80;86.30;;;;;;5108533;27;45258;-53
2023/12/26 05:10:10;;;;;;;1.92;0.20;;;17.80;86.40;;;;;;5107502;27;47422;-52
2023/12/26 05:12:37;;;;;;;1.13;0.50;;;17.80;86.40;;;;;;5108520;27;45378;-52
2023/12/26 05:15:04;;;;;;;0.32;0.32;;;17.80;86.20;;;;;;5111256;27;45295;-52
2023/12/26 05:17:32;;;;;;;1.13;0.30;;;17.80;86.30;;;;;;5111534;27;45311;-52
2023/12/26 05:20:00;;;;;;;1.38;0.30;;;17.80;86.10;;;;;;5110086;27;47204;-53
2023/12/26 05:22:27;;;;;;;0.95;0.30;;;17.80;86.20;;;;;;5110184;27;46004;-52
2023/12/26 05:24:54;;;;;;;0.55;0.20;;;17.80;86.20;;;;;;5111154;27;45332;-52
2023/12/26 05:27:21;;;;;;;0.47;0.20;;;17.80;86.40;;;;;;5111543;27;45356;-52
2023/12/26 05:29:47;;;;;;;0.82;0.20;;;17.80;86.20;;;;;;5109537;27;46537;-53
2023/12/26 05:32:14;;;;;;;2.60;0.40;;;17.80;86.60;;;;;;5109397;27;45382;-53
2023/12/26 05:34:44;;;;;;;0.75;0.30;;;17.80;86.30;;;;;;5110636;27;45117;-53
2023/12/26 05:37:11;;;;;;;0.98;0.20;;;17.80;86.10;;;;;;5109441;27;45180;-53
2023/12/26 05:39:38;;;;;;;2.55;0.40;;;17.90;86.30;;;;;;5101733;27;45147;-53
2023/12/26 05:42:05;;;;;;;1.23;0.45;;;17.90;86.20;;;;;;5108463;27;45126;-53
2023/12/26 05:44:32;;;;;;;2.22;0.40;;;17.90;86.30;;;;;;5107953;27;45399;-52
2023/12/26 05:47:01;;;;;;;1.13;0.43;;;17.80;86.20;;;;;;5108955;27;45545;-52
2023/12/26 05:49:28;;;;;;;1.63;0.30;;;17.80;86.20;;;;;;5108719;27;45234;-52
2023/12/26 05:51:56;;;;;;;0.47;0.28;;;17.90;86.30;;;;;;5110265;27;45223;-52
2023/12/26 05:54:23;;;;;;;0.32;0.30;;;17.90;86.30;;;;;;5109991;27;45089;-52
2023/12/26 05:56:50;;;;;;;0.73;0.40;;;17.90;86.20;;;;;;5109452;27;45210;-53
2023/12/26 05:59:16;;;;;;;0.60;0.20;;;17.90;85.90;;;;;;5110033;27;47273;-53
2023/12/26 06:01:45;;;;;;;0.90;0.30;;;17.90;86.10;;;;;;5109615;27;45269;-52
2023/12/26 06:04:12;;;;;;;1.27;0.47;;;17.90;86.20;;;;;;5110022;27;45404;-52
2023/12/26 06:06:39;;;;;;;0.50;0.35;;;17.80;86.20;;;;;;5109299;27;45414;-52
2023/12/26 06:09:07;;;;;;;3.47;0.45;;;17.90;86.00;;;;;;5106899;27;47980;-52
2023/12/26 06:11:34;;;;;;;1.50;0.50;;;17.90;86.10;;;;;;5110414;27;45255;-52
2023/12/26 06:14:01;;;;;;;0.63;0.30;;;17.90;86.20;;;;;;5109442;27;45188;-52
2023/12/26 06:16:28;;;;;;;0.30;0.30;;;17.90;86.00;;;;;;5110858;27;44697;-52
2023/12/26 06:18:54;;;;;;;0.70;0.20;;;17.90;85.90;;;;;;5108073;27;46559;-52
2023/12/26 06:21:21;;;;;;;0.70;0.30;;;17.90;85.80;;;;;;5108380;27;45606;-52
2023/12/26 06:23:48;;;;;;;1.85;0.38;;;17.90;85.70;;;;;;5109510;27;45211;-52
2023/12/26 06:26:17;;;;;;;0.55;0.30;;;17.90;85.70;;;;;;5110161;27;45336;-52
2023/12/26 06:28:44;;;;;;;0.63;0.30;;;17.80;85.60;;;;;;5109264;27;45415;-52
2023/12/26 06:31:14;;;;;;;0.30;0.22;;;17.80;85.60;;;;;;5108212;27;45189;-52
2023/12/26 06:33:41;;;;;;;1.25;0.30;;;17.90;85.40;;;;;;5110349;27;45186;-52
2023/12/26 06:36:08;;;;;;;0.85;0.38;;;17.80;85.30;;;;;;5109698;27;44846;-53
2023/12/26 06:38:35;;;;;;;0.52;0.20;;;17.90;85.50;;;;;;5108055;27;45638;-53
2023/12/26 06:41:02;;;;;;;0.90;0.30;;;17.80;85.30;;;;;;5108497;27;45275;-52
2023/12/26 06:43:30;;;;;;;1.20;0.38;;;17.80;85.20;;;;;;5109407;27;44587;-53
2023/12/26 06:45:57;;;;;;;2.08;0.40;;;17.80;85.60;;;;;;5109795;27;44862;-52
2023/12/26 06:48:24;;;;;;;0.35;0.30;;;17.80;85.50;;;;;;5109202;27;47295;-52
2023/12/26 06:50:51;;;;;;;1.42;0.40;;;17.80;85.50;;;;;;5109502;27;45229;-52
2023/12/26 06:53:17;;;;;;;0.22;0.20;;;17.80;85.50;;;;;;5108902;27;44765;-52
2023/12/26 06:55:44;;;;;;;1.13;0.32;;;17.80;85.20;;;;;;5110015;27;45404;-52
2023/12/26 06:58:11;;;;;;;0.93;0.40;;;17.80;85.40;;;;;;5110372;27;46035;-52
2023/12/26 07:00:39;;;;;;;0.80;0.43;;;17.80;85.20;;;;;;5108766;27;45246;-53
2023/12/26 07:03:08;;;;;;;1.00;0.32;;;17.80;85.20;;;;;;5110592;27;45239;-52
2023/12/26 07:05:35;;;;;;;1.55;0.47;;;17.80;85.60;;;;;;5108909;27;45655;-53
2023/12/26 07:08:02;;;;;;;1.10;0.30;;;17.90;85.60;;;;;;5108994;27;46046;-52
2023/12/26 07:10:29;;;;;;;0.75;0.40;;;17.90;85.60;;;;;;5109382;27;45158;-52
2023/12/26 07:12:56;;;;;;;0.30;0.28;;;17.90;85.60;;;;;;5109053;27;45413;-52
2023/12/26 07:15:22;;;;;;;0.60;0.30;;;17.90;85.70;;;;;;5109425;27;45195;-52
2023/12/26 07:17:50;;;;;;;0.98;0.32;;;17.90;85.60;;;;;;5104757;27;46365;-52
2023/12/26 07:20:17;;;;;;;1.27;0.40;;;17.90;85.60;;;;;;5108338;27;45187;-52
2023/12/26 07:22:44;;;;;;;0.60;0.30;;;17.90;85.70;;;;;;5108312;27;45267;-52
2023/12/26 07:25:11;;;;;;;0.30;0.25;;;17.90;85.60;;;;;;5108833;27;45405;-52
2023/12/26 07:27:38;;;;;;;1.02;0.30;;;17.90;85.60;;;;;;5109024;27;46562;-52
2023/12/26 07:30:05;;;;;;;1.05;0.30;;;17.90;85.70;;;;;;5107593;27;44649;-52
2023/12/26 07:32:32;;;;;;;1.75;0.52;;;17.90;85.40;;;;;;5108093;27;45314;-52
2023/12/26 07:35:00;;;;;;;0.55;0.30;;;17.90;85.70;;;;;;5108495;27;45461;-52
2023/12/26 07:37:27;;;;;;;0.10;0.10;;;17.90;85.70;;;;;;5106769;27;45205;-52
2023/12/26 07:39:54;;;;;;;0.75;0.32;;;17.90;85.60;;;;;;5109568;27;45315;-53
2023/12/26 07:42:20;;;;;;;0.85;0.40;;;17.90;85.80;;;;;;5108409;27;45186;-53
2023/12/26 07:44:47;;;;;;;0.95;0.35;;;17.80;85.70;;;;;;5108560;27;45268;-53
2023/12/26 07:47:15;;;;;;;0.47;0.30;;;17.90;85.90;;;;;;5106602;27;45361;-53
2023/12/26 07:49:42;;;;;;;0.65;0.40;;;17.90;85.70;;;;;;5108882;27;45288;-53
2023/12/26 07:52:10;;;;;;;0.63;0.22;;;17.90;85.90;;;;;;5109388;27;45274;-53
2023/12/26 07:54:36;;;;;;;0.68;0.40;;;17.90;85.80;;;;;;5110007;27;45080;-53
2023/12/26 07:57:04;;;;;;;0.93;0.30;;;17.90;85.70;;;;;;5107757;27;48094;-53
2023/12/26 07:59:31;;;;;;;1.73;0.35;;;17.90;85.90;;;;;;5107487;27;45289;-53
2023/12/26 08:01:57;;;;;;;1.63;0.50;;;17.90;85.90;;;;;;5106978;27;45246;-53
2023/12/26 08:04:24;;;;;;;0.88;0.38;;;17.90;86.30;;;;;;5109094;27;45324;-53
2023/12/26 08:06:51;;;;;;;0.88;0.28;;;17.80;85.60;;;;;;5109127;27;47129;-53
2023/12/26 08:09:19;;;;;;;0.98;0.30;;;17.90;85.60;;;;;;5108703;27;45385;-53
2023/12/26 08:11:46;;;;;;;0.63;0.20;;;17.90;85.30;;;;;;5106897;27;45209;-53
2023/12/26 08:14:17;;;;;;;1.38;0.40;;;17.90;85.00;;;;;;5109800;27;45158;-53
2023/12/26 08:16:44;;;;;;;1.85;0.40;;;17.80;85.00;;;;;;5109189;27;46592;-53
2023/12/26 08:19:10;;;;;;;0.85;0.38;;;17.80;84.80;;;;;;5109597;27;45489;-53
2023/12/26 08:21:37;;;;;;;0.40;0.25;;;17.80;84.90;;;;;;5107242;27;45175;-53
2023/12/26 08:24:07;;;;;;;0.52;0.22;;;17.80;85.00;;;;;;5108139;27;45141;-52
2023/12/26 08:26:35;;;;;;;1.15;0.50;;;17.80;84.30;;;;;;5107772;27;45187;-53
2023/12/26 08:29:02;;;;;;;1.30;0.40;;;17.80;84.00;;;;;;5107318;27;45188;-53
2023/12/26 08:31:28;;;;;;;2.38;0.40;;;17.80;83.70;;;;;;5108380;27;45281;-53
2023/12/26 08:33:55;;;;;;;1.38;0.40;;;17.80;83.70;;;;;;5107633;27;45333;-52
2023/12/26 08:36:22;;;;;;;0.90;0.38;;;17.80;83.80;;;;;;5108029;27;45186;-53
2023/12/26 08:38:49;;;;;;;1.38;0.40;;;17.90;84.10;;;;;;5106882;27;45293;-53
2023/12/26 08:41:15;;;;;;;1.02;0.50;;;17.90;84.40;;;;;;5106203;27;45178;-53
2023/12/26 08:43:44;;;;;;;1.58;0.50;;;17.90;84.60;;;;;;5107779;27;45125;-53
2023/12/26 08:46:11;;;;;;;1.15;0.40;;;17.90;85.00;;;;;;5108882;27;46557;-52
2023/12/26 08:48:38;;;;;;;1.17;0.52;;;17.90;84.90;;;;;;5112413;27;45185;-53
2023/12/26 08:51:04;;;;;;;2.63;0.70;;;17.80;85.20;;;;;;5112013;27;45153;-53
2023/12/26 08:53:31;;;;;;;1.77;0.40;;;17.80;85.20;;;;;;5113069;27;45434;-53
2023/12/26 08:55:58;;;;;;;2.70;0.60;;;17.80;85.10;;;;;;5111713;27;45469;-53
2023/12/26 08:58:29;;;;;;;1.00;0.30;;;17.80;85.10;;;;;;5112071;27;45319;-53
2023/12/26 09:00:57;;;;;;;0.80;0.35;;;17.80;85.20;;;;;;5111780;27;45365;-53
2023/12/26 09:03:24;;;;;;;0.80;0.38;;;17.80;84.90;;;;;;5112863;27;45163;-53
2023/12/26 09:05:50;;;;;;;2.38;0.55;;;17.80;85.00;;;;;;5110655;27;47458;-53
2023/12/26 09:08:17;;;;;;;0.82;0.40;;;17.80;85.10;;;;;;5110439;27;45211;-53
2023/12/26 09:10:44;;;;;;;1.27;0.50;;;17.70;85.00;;;;;;5110158;27;45239;-53
2023/12/26 09:13:11;;;;;;;1.25;0.32;;;17.70;85.20;;;;;;5111426;27;45213;-53
2023/12/26 09:15:38;;;;;;;2.20;0.50;;;17.70;85.30;;;;;;5110961;27;45234;-53
2023/12/26 09:18:07;;;;;;;1.85;0.50;;;17.70;85.10;;;;;;5110947;27;45241;-53
2023/12/26 09:20:34;;;;;;;0.88;0.35;;;17.70;85.30;;;;;;5108266;27;45117;-53
2023/12/26 09:23:00;;;;;;;1.38;0.40;;;17.70;85.20;;;;;;5108285;27;45360;-53
2023/12/26 09:25:27;;;;;;;1.45;0.55;;;17.70;85.40;;;;;;5110565;27;45206;-53
2023/12/26 09:27:54;;;;;;;1.33;0.47;;;17.70;85.20;;;;;;5111108;27;45336;-53
2023/12/26 09:30:21;;;;;;;1.20;0.52;;;17.80;85.30;;;;;;5109542;27;45245;-53
2023/12/26 09:32:48;;;;;;;1.42;0.40;;;17.80;85.20;;;;;;5106396;27;45170;-53
2023/12/26 09:35:16;;;;;;;3.83;0.68;;;17.80;85.30;;;;;;5108787;27;45344;-53
2023/12/26 09:37:43;;;;;;;1.70;0.60;;;17.70;85.10;;;;;;5108074;27;45293;-53
2023/12/26 09:40:12;;;;;;;2.42;0.60;;;17.70;85.30;;;;;;5106919;27;45246;-53
2023/12/26 09:42:39;;;;;;;2.58;0.70;;;17.70;85.20;;;;;;5108124;27;45570;-53
2023/12/26 09:45:10;;;;;;;1.60;0.60;;;17.70;85.20;;;;;;5110635;27;47091;-53
2023/12/26 09:47:38;;;;;;;1.87;0.60;;;17.70;85.20;;;;;;5106611;27;45136;-53
2023/12/26 09:50:06;;;;;;;1.90;0.67;;;17.70;85.10;;;;;;5110576;27;45219;-53
2023/12/26 09:52:35;;;;;;;2.37;0.70;;;17.70;84.40;;;;;;5108681;27;45377;-52
2023/12/26 09:55:03;;;;;;;2.75;0.70;;;17.60;83.90;;;;;;5109866;27;46335;-53
2023/12/26 09:57:30;;;;;;;2.60;0.90;;;17.60;83.40;;;;;;5109051;27;45181;-53
2023/12/26 09:59:58;;;;;;;1.85;0.60;;;17.60;83.30;;;;;;5106616;27;45207;-53
2023/12/26 10:02:25;;;;;;;2.70;0.65;;;17.60;82.80;;;;;;5106687;27;45294;-53
2023/12/26 10:04:52;;;;;;;2.15;0.60;;;17.60;82.80;;;;;;5108529;27;46505;-53
2023/12/26 10:07:19;;;;;;;2.22;0.70;;;17.60;82.40;;;;;;5109737;27;45159;-53
2023/12/26 10:09:48;;;;;;;2.35;0.60;;;17.50;82.10;;;;;;5111112;27;45243;-53
2023/12/26 10:12:14;;;;;;;4.13;0.60;;;17.50;81.90;;;;;;5110510;27;45413;-53
2023/12/26 10:14:41;;;;;;;3.15;0.90;;;17.50;82.20;;;;;;5106005;27;45421;-53
2023/12/26 10:17:09;;;;;;;1.50;0.60;;;17.50;81.90;;;;;;5109449;27;45186;-53
2023/12/26 10:19:35;;;;;;;2.78;0.80;;;17.50;81.60;;;;;;5103243;27;45274;-53
2023/12/26 10:22:03;;;;;;;3.00;1.00;;;17.50;81.70;;;;;;5104833;27;45225;-53
2023/12/26 10:24:30;;;;;;;2.53;0.68;;;17.60;80.90;;;;;;5102442;27;45271;-53
2023/12/26 10:27:00;;;;;;;2.65;0.70;;;17.70;80.50;;;;;;5101562;27;45200;-53
2023/12/26 10:29:27;;;;;;;3.83;0.90;;;17.80;80.30;;;;;;5101703;27;45337;-53
2023/12/26 10:31:53;;;;;;;2.58;0.85;;;17.80;80.40;;;;;;5096940;27;45221;-53
2023/12/26 10:34:21;;;;;;;3.10;0.93;;;17.80;79.90;;;;;;5101041;27;45302;-53
2023/12/26 10:36:48;;;;;;;2.88;0.80;;;17.90;79.80;;;;;;5097533;27;44655;-53
2023/12/26 10:39:16;;;;;;;2.97;0.90;;;17.80;80.10;;;;;;5102429;27;45162;-53
2023/12/26 10:41:44;;;;;;;2.38;0.75;;;17.80;80.40;;;;;;5097294;27;45359;-53
2023/12/26 10:44:14;;;;;;;1.55;0.60;;;17.80;80.50;;;;;;5099255;27;45359;-53
2023/12/26 10:46:42;;;;;;;3.53;0.73;;;17.90;80.10;;;;;;5108283;27;45861;-53
2023/12/26 10:49:11;;;;;;;1.60;0.57;;;17.80;79.60;;;;;;5109375;27;45436;-53
2023/12/26 10:51:42;;;;;;;2.05;0.73;;;17.90;79.60;;;;;;5108611;27;45177;-53
2023/12/26 10:54:19;;;;;;;1.95;0.50;;;17.90;80.00;;;;;;5108788;27;46467;-53
2023/12/26 10:56:48;;;;;;;2.20;0.80;;;17.90;80.40;;;;;;5108841;27;45428;-53
2023/12/26 10:59:16;;;;;;;2.45;1.10;;;17.80;81.30;;;;;;5110861;27;45200;-53
2023/12/26 11:01:43;;;;;;;3.25;0.70;;;17.80;81.60;;;;;;5108570;27;45336;-53
2023/12/26 11:04:09;;;;;;;3.08;0.85;;;17.80;81.50;;;;;;5110115;27;47517;-53
2023/12/26 11:06:36;;;;;;;2.03;0.88;;;17.80;81.70;;;;;;5110015;27;45258;-53
2023/12/26 11:09:02;;;;;;;1.65;0.65;;;17.80;81.80;;;;;;5110362;27;45329;-53
2023/12/26 11:11:28;;;;;;;1.80;0.68;;;17.80;81.50;;;;;;5109288;27;45209;-53
2023/12/26 11:13:56;;;;;;;2.88;0.90;;;17.80;81.50;;;;;;5109864;27;46314;-53
2023/12/26 11:16:23;;;;;;;2.63;0.90;;;17.80;81.50;;;;;;5110444;27;44669;-53
2023/12/26 11:18:49;;;;;;;2.65;0.98;;;17.70;81.20;;;;;;5109841;27;44660;-53
2023/12/26 11:21:17;;;;;;;1.98;0.63;;;17.70;81.30;;;;;;5109867;27;45247;-53
2023/12/26 11:23:44;;;;;;;1.33;0.65;;;17.70;81.10;;;;;;5109482;27;45431;-53
2023/12/26 11:26:10;;;;;;;2.78;0.70;;;17.70;81.00;;;;;;5110897;27;45592;-53
2023/12/26 11:28:40;;;;;;;2.85;0.57;;;17.70;81.00;;;;;;5109726;27;45140;-53
2023/12/26 11:31:05;;;;;;;2.15;0.80;;;17.70;80.50;;;;;;5108623;27;45403;-53
2023/12/26 11:33:33;;;;;;;3.05;0.85;;;17.70;81.20;;;;;;5109518;27;45163;-53
2023/12/26 11:36:00;;;;;;;2.42;0.50;;;17.70;81.40;;;;;;5109697;27;45162;-53
2023/12/26 11:38:27;;;;;;;2.90;0.70;;;17.70;81.40;;;;;;5109918;27;45259;-53
2023/12/26 11:40:52;;;;;;;1.42;0.70;;;17.70;81.40;;;;;;5109166;27;45397;-53
2023/12/26 11:43:19;;;;;;;2.47;0.85;;;17.70;81.20;;;;;;5109160;27;46226;-53
2023/12/26 11:45:45;;;;;;;1.50;0.70;;;17.80;76.80;;;;;;5108720;27;45540;-53
2023/12/26 11:48:11;;;;;;;2.95;0.82;;;17.80;77.30;;;;;;5110427;27;45324;-53
2023/12/26 11:50:39;;;;;;;1.70;0.75;;;17.80;76.30;;;;;;5108845;27;45480;-53
2023/12/26 11:53:05;;;;;;;3.72;0.82;;;17.80;75.80;;;;;;5109151;27;46216;-53
2023/12/26 11:55:31;;;;;;;1.17;0.45;;;17.80;75.20;;;;;;5109052;27;45151;-53
2023/12/26 11:57:58;;;;;;;1.55;0.63;;;17.80;75.00;;;;;;5110169;27;44754;-53
2023/12/26 12:00:24;;;;;;;1.55;0.68;;;17.80;75.30;;;;;;5109000;27;44721;-53
2023/12/26 12:02:49;;;;;;;2.40;0.80;;;17.80;74.40;;;;;;5108961;27;46184;-53
2023/12/26 12:05:16;;;;;;;2.33;0.50;;;17.90;74.50;;;;;;5109391;27;46128;-53
2023/12/26 12:08:10;;;;;;;2.03;0.63;;;17.90;73.70;;;;;;5109664;27;45142;-53
2023/12/26 12:10:36;;;;;;;2.50;0.73;;;17.90;72.90;;;;;;5108908;27;45186;-53
2023/12/26 12:13:03;;;;;;;3.53;1.02;;;17.80;73.20;;;;;;5110119;27;45435;-53
2023/12/26 12:15:29;;;;;;;4.68;1.27;;;17.90;74.80;;;;;;5109516;27;45122;-52
2023/12/26 12:17:55;;;;;;;2.33;0.70;;;17.90;74.00;;;;;;5109577;27;45335;-52
2023/12/26 12:20:21;;;;;;;2.47;0.70;;;17.90;73.60;;;;;;5108195;27;45321;-53
2023/12/26 12:22:49;;;;;;;2.38;0.63;;;17.90;73.00;;;;;;5111135;27;48092;-53
2023/12/26 12:25:17;;;;;;;3.22;0.93;;;17.80;72.40;;;;;;5113436;27;44897;-52
2023/12/26 12:28:02;;;;;;;2.15;0.50;;;17.80;72.00;;;;;;5113193;27;45125;-52
2023/12/26 12:30:29;;;;;;;2.30;0.60;;;17.80;71.70;;;;;;5111105;27;45430;-52
2023/12/26 12:33:18;;;;;;;2.40;0.68;;;17.80;71.60;;;;;;5112763;27;47346;-53
2023/12/26 12:35:48;;;;;;;4.63;1.27;;;17.80;71.00;;;;;;5112396;27;45404;-53
2023/12/26 12:38:16;;;;;;;3.33;0.90;;;17.70;70.80;;;;;;5111954;27;45282;-53
2023/12/26 12:40:45;;;;;;;4.40;0.80;;;17.80;71.00;;;;;;5111952;27;45492;-53
2023/12/26 12:43:12;;;;;;;2.50;0.80;;;17.70;71.10;;;;;;5112598;27;46164;-53
2023/12/26 12:45:38;;;;;;;2.75;0.65;;;17.70;71.80;;;;;;5111479;27;45135;-53
2023/12/26 12:48:04;;;;;;;2.22;0.90;;;17.70;72.30;;;;;;5112772;27;45333;-53